createdAt,value
2023-04-18T00:01:59.238Z,14.45
2023-04-18T00:04:26.214Z,13.80
2023-04-18T00:06:53.029Z,15.65
2023-04-18T00:09:22.574Z,18.98
2023-04-18T00:11:52.676Z,15.65
2023-04-18T00:14:19.618Z,15.60
2023-04-18T00:16:48.830Z,17.63
2023-04-18T00:19:19.594Z,15.57
2023-04-18T00:21:52.044Z,14.38
2023-04-18T00:24:18.832Z,17.23
2023-04-18T00:26:48.699Z,17.85
2023-04-18T00:29:18.050Z,14.55
2023-04-18T00:31:44.939Z,11.90
2023-04-18T00:34:12.170Z,11.75
2023-04-18T00:36:40.347Z,11.65
2023-04-18T00:39:07.203Z,12.37
2023-04-18T00:41:34.465Z,12.85
2023-04-18T00:44:01.209Z,15.75
2023-04-18T00:46:28.018Z,13.43
2023-04-18T00:48:54.911Z,13.00
2023-04-18T00:51:21.907Z,14.35
2023-04-18T00:53:50.477Z,13.20
2023-04-18T00:56:17.358Z,13.18
2023-04-18T00:58:44.312Z,14.02
2023-04-18T01:01:11.044Z,14.70
2023-04-18T01:03:37.947Z,12.23
2023-04-18T01:06:05.086Z,15.88
2023-04-18T01:08:32.240Z,13.60
2023-04-18T01:11:00.321Z,13.50
2023-04-18T01:13:27.142Z,14.23
2023-04-18T01:15:55.154Z,12.57
2023-04-18T01:18:22.101Z,13.15
2023-04-18T01:20:52.484Z,13.85
2023-04-18T01:23:20.188Z,15.98
2023-04-18T01:25:48.908Z,11.18
2023-04-18T01:28:16.921Z,12.20
2023-04-18T01:30:43.697Z,13.32
2023-04-18T01:33:10.680Z,14.75
2023-04-18T01:35:37.462Z,13.05
2023-04-18T01:38:04.220Z,12.30
2023-04-18T01:40:31.081Z,13.43
2023-04-18T01:43:04.017Z,15.00
2023-04-18T01:45:33.650Z,11.95
2023-04-18T01:48:02.531Z,14.48
2023-04-18T01:50:29.273Z,15.40
2023-04-18T01:52:58.205Z,12.45
2023-04-18T01:55:24.947Z,12.38
2023-04-18T01:58:01.791Z,13.05
2023-04-18T02:00:31.014Z,11.20
2023-04-18T02:02:58.654Z,14.13
2023-04-18T02:05:25.584Z,14.60
2023-04-18T02:07:52.315Z,12.10
2023-04-18T02:10:20.715Z,10.80
2023-04-18T02:12:47.478Z,13.05
2023-04-18T02:15:14.213Z,13.10
2023-04-18T02:17:42.467Z,12.35
2023-04-18T02:20:09.865Z,12.40
2023-04-18T02:22:37.189Z,13.40
2023-04-18T02:25:04.368Z,13.68
2023-04-18T02:27:31.155Z,12.00
2023-04-18T02:29:57.966Z,11.57
2023-04-18T02:32:24.860Z,13.30
2023-04-18T02:34:53.031Z,13.65
2023-04-18T02:37:19.827Z,13.23
2023-04-18T02:39:46.569Z,13.40
2023-04-18T02:42:13.317Z,11.25
2023-04-18T02:44:40.037Z,12.88
2023-04-18T02:47:06.725Z,13.50
2023-04-18T02:49:33.565Z,11.27
2023-04-18T02:52:01.881Z,13.57
2023-04-18T02:54:28.728Z,11.88
2023-04-18T02:56:58.322Z,11.77
2023-04-18T02:59:27.862Z,11.45
2023-04-18T03:01:57.364Z,10.93
2023-04-18T03:04:24.544Z,12.77
2023-04-18T03:06:56.893Z,11.55
2023-04-18T03:09:27.799Z,14.95
2023-04-18T03:11:54.850Z,13.02
2023-04-18T03:14:21.783Z,14.85
2023-04-18T03:16:48.681Z,12.38
2023-04-18T03:19:15.433Z,12.57
2023-04-18T03:21:42.395Z,13.20
2023-04-18T03:24:11.582Z,12.45
2023-04-18T03:26:41.599Z,13.30
2023-04-18T03:29:08.442Z,13.63
2023-04-18T03:31:42.533Z,13.68
2023-04-18T03:34:09.357Z,12.38
2023-04-18T03:36:36.220Z,11.00
2023-04-18T03:39:03.019Z,13.30
2023-04-18T03:41:29.704Z,11.60
2023-04-18T03:43:57.743Z,12.75
2023-04-18T03:46:24.648Z,12.68
2023-04-18T03:48:51.508Z,12.68
2023-04-18T03:51:18.285Z,13.82
2023-04-18T03:53:45.009Z,11.70
2023-04-18T03:56:12.044Z,11.48
2023-04-18T03:58:38.803Z,10.40
2023-04-18T04:01:06.975Z,15.68
2023-04-18T04:03:33.801Z,15.95
2023-04-18T04:06:00.746Z,14.20
2023-04-18T04:08:28.290Z,12.57
2023-04-18T04:10:55.387Z,16.20
2023-04-18T04:13:22.155Z,12.65
2023-04-18T04:15:51.560Z,10.43
2023-04-18T04:18:19.701Z,13.90
2023-04-18T04:20:46.468Z,17.40
2023-04-18T04:23:13.253Z,14.90
2023-04-18T04:25:40.042Z,14.55
2023-04-18T04:28:07.107Z,15.73
2023-04-18T04:30:33.870Z,16.15
2023-04-18T04:33:00.669Z,15.13
2023-04-18T04:35:29.314Z,15.68
2023-04-18T04:39:50.139Z,17.70
2023-04-18T04:42:19.922Z,16.13
2023-04-18T04:44:46.786Z,15.15
2023-04-18T04:47:13.603Z,13.15
2023-04-18T04:49:40.320Z,13.88
2023-04-18T04:52:07.040Z,15.20
2023-04-18T04:54:33.770Z,13.52
2023-04-18T04:57:01.901Z,14.30
2023-04-18T04:59:28.634Z,15.87
2023-04-18T05:01:55.391Z,15.32
2023-04-18T05:04:22.337Z,14.05
2023-04-18T05:06:49.210Z,14.27
2023-04-18T05:09:15.951Z,12.10
2023-04-18T05:11:42.691Z,12.60
2023-04-18T05:14:10.876Z,13.00
2023-04-18T05:16:37.737Z,19.40
2023-04-18T05:19:06.452Z,15.20
2023-04-18T05:21:33.176Z,12.88
2023-04-18T05:23:59.922Z,12.35
2023-04-18T05:26:27.932Z,13.63
2023-04-18T05:28:54.969Z,12.50
2023-04-18T05:31:40.657Z,14.05
2023-04-18T05:34:07.504Z,13.82
2023-04-18T05:36:34.499Z,12.90
2023-04-18T05:39:01.614Z,13.85
2023-04-18T05:41:28.478Z,11.57
2023-04-18T05:44:04.900Z,10.63
2023-04-18T05:46:46.947Z,9.13
2023-04-18T05:49:13.790Z,9.73
2023-04-18T05:51:40.633Z,12.10
2023-04-18T05:54:07.391Z,14.60
2023-04-18T05:56:39.280Z,13.65
2023-04-18T05:59:06.035Z,13.00
2023-04-18T06:01:32.956Z,12.85
2023-04-18T06:04:01.200Z,10.90
2023-04-18T06:06:28.148Z,13.73
2023-04-18T06:08:54.892Z,12.70
2023-04-18T06:11:23.883Z,11.43
2023-04-18T06:16:17.557Z,11.05
2023-04-18T06:18:47.634Z,9.90
2023-04-18T06:21:15.805Z,13.40
2023-04-18T06:23:42.814Z,11.10
2023-04-18T06:26:12.319Z,11.43
2023-04-18T06:28:39.121Z,11.10
2023-04-18T06:31:05.945Z,10.20
2023-04-18T06:33:33.456Z,11.50
2023-04-18T06:36:00.249Z,11.90
2023-04-18T06:38:28.431Z,11.18
2023-04-18T06:40:55.150Z,14.95
2023-04-18T06:43:21.958Z,12.20
2023-04-18T06:45:48.769Z,11.68
2023-04-18T06:48:15.814Z,11.48
2023-04-18T06:50:44.969Z,11.70
2023-04-18T06:53:14.179Z,11.43
2023-04-18T06:55:45.143Z,13.32
2023-04-18T06:58:15.459Z,7.93
2023-04-18T07:00:42.603Z,11.00
2023-04-18T07:03:11.256Z,11.95
2023-04-18T07:05:38.825Z,12.25
2023-04-18T07:08:05.715Z,8.50
2023-04-18T07:10:32.528Z,12.35
2023-04-18T07:13:00.584Z,8.65
2023-04-18T07:15:27.406Z,9.67
2023-04-18T07:17:54.208Z,9.95
2023-04-18T07:20:21.145Z,12.98
2023-04-18T07:22:48.380Z,10.65
2023-04-18T07:25:16.635Z,10.18
2023-04-18T07:27:43.432Z,8.60
2023-04-18T07:30:12.435Z,8.48
2023-04-18T07:35:06.450Z,9.07
2023-04-18T07:37:33.459Z,9.00
2023-04-18T07:40:00.229Z,11.20
2023-04-18T07:42:27.114Z,6.00
2023-04-18T07:44:56.917Z,9.07
2023-04-18T07:47:28.189Z,7.68
2023-04-18T07:49:56.307Z,7.05
2023-04-18T07:52:23.302Z,7.38
2023-04-18T07:54:50.546Z,8.27
2023-04-18T07:57:17.648Z,6.03
2023-04-18T07:59:44.384Z,8.15
2023-04-18T08:02:11.209Z,8.48
2023-04-18T08:04:39.586Z,7.57
2023-04-18T08:07:06.474Z,7.60
2023-04-18T08:09:33.233Z,8.45
2023-04-18T08:12:00.092Z,8.55
2023-04-18T08:14:26.840Z,8.10
2023-04-18T08:16:53.595Z,9.25
2023-04-18T08:19:23.513Z,7.07
2023-04-18T08:21:53.845Z,10.23
2023-04-18T08:24:20.780Z,8.02
2023-04-18T08:26:47.595Z,7.72
2023-04-18T08:29:14.606Z,8.55
2023-04-18T08:31:41.600Z,9.35
2023-04-18T08:34:08.384Z,11.30
2023-04-18T08:36:35.332Z,9.30
2023-04-18T08:39:03.454Z,6.70
2023-04-18T08:41:35.954Z,8.53
2023-04-18T08:44:08.140Z,8.40
2023-04-18T08:46:35.151Z,7.80
2023-04-18T08:49:04.223Z,8.75
2023-04-18T08:51:32.531Z,12.10
2023-04-18T08:54:00.047Z,10.43
2023-04-18T08:56:30.051Z,7.03
2023-04-18T08:59:01.440Z,6.32
2023-04-18T09:01:51.197Z,8.32
2023-04-18T09:04:34.510Z,7.55
2023-04-18T09:07:01.539Z,7.25
2023-04-18T09:09:28.335Z,8.65
2023-04-18T09:12:07.689Z,7.40
2023-04-18T09:14:36.870Z,10.40
2023-04-18T09:17:04.993Z,6.47
2023-04-18T09:19:32.163Z,8.57
2023-04-18T09:22:00.970Z,7.88
2023-04-18T09:24:31.883Z,7.57
2023-04-18T09:27:02.087Z,7.97
2023-04-18T09:29:45.601Z,6.88
2023-04-18T09:32:22.012Z,6.15
2023-04-18T09:34:48.925Z,6.50
2023-04-18T09:37:15.985Z,7.25
2023-04-18T09:39:44.201Z,8.43
2023-04-18T09:42:12.519Z,7.60
2023-04-18T09:45:00.277Z,9.15
2023-04-18T09:47:28.444Z,9.55
2023-04-18T09:49:59.788Z,7.18
2023-04-18T09:52:31.969Z,8.18
2023-04-18T09:55:02.755Z,6.07
2023-04-18T09:57:31.567Z,5.57
2023-04-18T10:00:08.848Z,7.15
2023-04-18T10:02:47.911Z,8.35
2023-04-18T10:07:43.777Z,7.05
2023-04-18T10:10:11.146Z,6.80
2023-04-18T10:12:38.587Z,6.30
2023-04-18T10:15:08.763Z,6.00
2023-04-18T10:17:52.513Z,6.00
2023-04-18T10:20:29.398Z,4.95
2023-04-18T10:22:59.024Z,5.80
2023-04-18T10:25:50.234Z,6.93
2023-04-18T10:28:17.546Z,8.27
2023-04-18T10:30:54.193Z,6.32
2023-04-18T10:33:30.512Z,6.75
2023-04-18T10:36:00.018Z,6.82
2023-04-18T10:38:36.493Z,7.43
2023-04-18T10:41:24.194Z,5.97
2023-04-18T10:44:19.304Z,6.78
2023-04-18T10:47:33.212Z,6.22
2023-04-18T10:50:05.927Z,5.80
2023-04-18T10:52:33.464Z,5.70
2023-04-18T10:55:17.035Z,7.35
2023-04-18T10:57:45.161Z,8.00
2023-04-18T11:00:14.320Z,7.80
2023-04-18T11:02:48.578Z,8.73
2023-04-18T11:05:24.659Z,8.95
2023-04-18T11:07:51.675Z,7.38
2023-04-18T11:10:19.846Z,8.27
2023-04-18T11:12:48.452Z,7.63
2023-04-18T11:15:17.423Z,9.20
2023-04-18T11:17:44.760Z,10.63
2023-04-18T11:20:13.356Z,7.68
2023-04-18T11:22:49.276Z,11.63
2023-04-18T11:25:16.695Z,9.50
2023-04-18T11:27:44.367Z,9.82
2023-04-18T11:30:11.961Z,8.52
2023-04-18T11:32:39.246Z,9.07
2023-04-18T11:35:08.968Z,10.00
2023-04-18T11:37:36.064Z,8.80
2023-04-18T11:40:05.749Z,10.43
2023-04-18T11:42:33.480Z,8.60
2023-04-18T11:45:00.252Z,8.50
2023-04-18T11:47:28.844Z,8.68
2023-04-18T11:49:57.276Z,9.25
2023-04-18T11:52:24.782Z,8.70
2023-04-18T11:54:51.717Z,9.07
2023-04-18T11:57:21.918Z,10.63
2023-04-18T11:59:50.252Z,10.27
2023-04-18T12:02:17.356Z,9.60
2023-04-18T12:04:52.020Z,9.48
2023-04-18T12:07:33.484Z,10.73
2023-04-18T12:10:00.380Z,9.13
2023-04-18T12:12:28.470Z,10.40
2023-04-18T12:15:02.598Z,8.83
2023-04-18T12:17:31.475Z,8.38
2023-04-18T12:20:01.958Z,11.40
2023-04-18T12:22:39.833Z,10.65
2023-04-18T12:25:14.821Z,10.02
2023-04-18T12:27:54.182Z,14.35
2023-04-18T12:30:22.403Z,10.57
2023-04-18T12:32:50.977Z,10.50
2023-04-18T12:35:18.606Z,11.43
2023-04-18T12:37:46.112Z,11.68
2023-04-18T12:40:13.258Z,12.70
2023-04-18T12:42:40.219Z,10.98
2023-04-18T12:45:10.378Z,12.43
2023-04-18T12:47:38.392Z,11.70
2023-04-18T12:50:07.290Z,12.30
2023-04-18T12:52:37.162Z,11.38
2023-04-18T12:55:06.661Z,12.23
2023-04-18T12:57:33.569Z,11.68
2023-04-18T13:00:00.328Z,14.02
2023-04-18T13:02:28.538Z,11.43
2023-04-18T13:04:55.901Z,11.73
2023-04-18T13:07:22.690Z,12.90
2023-04-18T13:09:49.480Z,11.00
2023-04-18T13:12:16.334Z,12.57
2023-04-18T13:14:43.121Z,12.10
2023-04-18T13:17:09.861Z,13.15
2023-04-18T13:19:37.884Z,13.50
2023-04-18T13:22:04.613Z,11.57
2023-04-18T13:24:31.493Z,12.88
2023-04-18T13:26:58.870Z,13.40
2023-04-18T13:29:27.155Z,13.73
2023-04-18T13:31:53.964Z,15.23
2023-04-18T13:34:20.682Z,15.57
2023-04-18T13:36:48.902Z,15.95
2023-04-18T13:39:16.594Z,12.70
2023-04-18T13:41:44.763Z,13.00
2023-04-18T13:44:11.500Z,16.03
2023-04-18T13:46:38.343Z,14.80
2023-04-18T13:49:05.060Z,16.92
2023-04-18T13:51:33.261Z,16.08
2023-04-18T13:54:01.408Z,16.23
2023-04-18T13:56:28.490Z,16.38
2023-04-18T13:58:55.846Z,15.15
2023-04-18T14:01:22.775Z,14.85
2023-04-18T14:03:49.717Z,18.58
2023-04-18T14:06:16.896Z,17.80
2023-04-18T14:08:44.104Z,13.80
2023-04-18T14:11:12.250Z,17.35
2023-04-18T14:13:39.017Z,15.18
2023-04-18T14:16:08.411Z,17.08
2023-04-18T14:18:35.310Z,15.15
2023-04-18T14:21:02.079Z,15.80
2023-04-18T14:23:34.220Z,17.52
2023-04-18T14:26:05.540Z,14.75
2023-04-18T14:28:33.640Z,16.10
2023-04-18T14:31:00.439Z,15.23
2023-04-18T14:33:27.363Z,18.42
2023-04-18T14:35:54.379Z,14.60
2023-04-18T14:38:21.158Z,14.40
2023-04-18T14:40:47.900Z,17.38
2023-04-18T14:43:14.688Z,14.38
2023-04-18T14:45:42.807Z,14.30
2023-04-18T14:48:10.317Z,13.38
2023-04-18T14:50:37.239Z,12.70
2023-04-18T14:53:04.098Z,14.70
2023-04-18T14:55:30.951Z,15.52
2023-04-18T14:57:57.721Z,18.42
2023-04-18T15:00:24.889Z,14.70
2023-04-18T15:02:53.396Z,18.30
2023-04-18T15:05:20.826Z,13.90
2023-04-18T15:07:47.557Z,14.75
2023-04-18T15:10:14.298Z,15.38
2023-04-18T15:12:42.604Z,16.55
2023-04-18T15:15:10.105Z,11.95
2023-04-18T15:17:36.838Z,16.48
2023-04-18T15:20:06.087Z,15.07
2023-04-18T15:22:36.049Z,14.35
2023-04-18T15:25:03.049Z,15.70
2023-04-18T15:27:29.810Z,15.57
2023-04-18T15:29:56.575Z,11.57
2023-04-18T15:32:23.470Z,14.32
2023-04-18T15:34:50.414Z,13.13
2023-04-18T15:37:24.522Z,14.23
2023-04-18T15:39:58.809Z,11.82
2023-04-18T15:42:25.580Z,15.65
2023-04-18T15:44:52.731Z,13.30
2023-04-18T15:47:19.496Z,14.30
2023-04-18T15:49:46.239Z,14.10
2023-04-18T15:52:13.017Z,12.85
2023-04-18T15:54:42.254Z,17.33
2023-04-18T15:57:09.210Z,15.13
2023-04-18T15:59:36.045Z,26.50
2023-04-18T16:02:03.237Z,12.93
2023-04-18T16:04:30.163Z,16.33
2023-04-18T16:06:56.881Z,14.43
2023-04-18T16:09:23.932Z,13.20
2023-04-18T16:11:53.053Z,14.23
2023-04-18T16:14:19.798Z,13.63
2023-04-18T16:16:46.558Z,13.07
2023-04-18T16:19:13.302Z,13.15
2023-04-18T16:21:40.066Z,15.05
2023-04-18T16:24:07.322Z,14.63
2023-04-18T16:26:34.097Z,13.82
2023-04-18T16:29:02.208Z,15.38
2023-04-18T16:31:29.133Z,14.05
2023-04-18T16:33:58.016Z,14.45
2023-04-18T16:38:51.937Z,12.63
2023-04-18T16:41:19.056Z,11.43
2023-04-18T16:43:45.892Z,12.27
2023-04-18T16:46:14.318Z,14.77
2023-04-18T16:48:41.304Z,11.82
2023-04-18T16:51:08.537Z,14.90
2023-04-18T16:53:35.352Z,12.68
2023-04-18T16:56:02.112Z,13.82
2023-04-18T16:58:30.184Z,14.88
2023-04-18T17:00:57.084Z,12.80
2023-04-18T17:03:34.538Z,12.80
2023-04-18T17:06:01.645Z,14.32
2023-04-18T17:08:28.679Z,12.65
2023-04-18T17:10:55.618Z,13.73
2023-04-18T17:13:22.461Z,13.57
2023-04-18T17:15:52.117Z,12.48
2023-04-18T17:18:19.225Z,13.48
2023-04-18T17:20:47.524Z,13.82
2023-04-18T17:23:14.436Z,11.95
2023-04-18T17:25:43.468Z,14.50
2023-04-18T17:28:10.196Z,11.43
2023-04-18T17:30:42.174Z,14.23
2023-04-18T17:33:10.560Z,12.07
2023-04-18T17:35:39.724Z,13.00
2023-04-18T17:38:12.738Z,11.85
2023-04-18T17:40:40.716Z,11.77
2023-04-18T17:43:07.571Z,12.80
2023-04-18T17:45:35.622Z,12.10
2023-04-18T17:48:02.459Z,15.17
2023-04-18T17:50:30.700Z,14.07
2023-04-18T17:52:57.452Z,14.63
2023-04-18T17:55:25.800Z,13.82
2023-04-18T17:57:52.649Z,13.07
2023-04-18T18:00:22.389Z,14.93
2023-04-18T18:02:49.275Z,14.32
2023-04-18T18:07:50.577Z,12.52
2023-04-18T18:10:18.180Z,11.98
2023-04-18T18:12:46.260Z,13.82
2023-04-18T18:15:13.082Z,13.97
2023-04-18T18:17:39.936Z,15.75
2023-04-18T18:20:08.664Z,15.57
2023-04-18T18:22:35.420Z,16.88
2023-04-18T18:25:02.921Z,15.63
2023-04-18T18:27:29.657Z,13.52
2023-04-18T18:29:57.702Z,14.30
2023-04-18T18:32:24.574Z,12.50
2023-04-18T18:34:51.329Z,16.40
2023-04-18T18:37:18.126Z,14.57
2023-04-18T18:39:44.906Z,12.68
2023-04-18T18:42:11.632Z,13.82
2023-04-18T18:44:38.363Z,12.13
2023-04-18T18:47:06.586Z,15.05
2023-04-18T18:49:33.335Z,15.70
2023-04-18T18:52:00.058Z,13.38
2023-04-18T18:54:26.769Z,12.57
2023-04-18T18:56:53.475Z,14.60
2023-04-18T18:59:20.210Z,12.82
2023-04-18T19:01:47.078Z,14.30
2023-04-18T19:04:15.418Z,13.50
2023-04-18T19:06:42.310Z,13.20
2023-04-18T19:09:09.091Z,15.88
2023-04-18T19:11:35.815Z,13.90
2023-04-18T19:14:02.585Z,12.75
2023-04-18T19:16:29.474Z,12.55
2023-04-18T19:18:56.234Z,15.43
2023-04-18T19:21:24.340Z,14.35
2023-04-18T19:23:51.091Z,16.17
2023-04-18T19:26:17.840Z,16.55
2023-04-18T19:28:45.280Z,18.25
2023-04-18T19:31:12.101Z,15.73
2023-04-18T19:33:38.983Z,19.00
2023-04-18T19:36:06.073Z,14.68
2023-04-18T19:38:34.133Z,13.45
2023-04-18T19:41:00.873Z,13.97
2023-04-18T19:43:29.487Z,14.20
2023-04-18T19:45:56.331Z,14.80
2023-04-18T19:48:23.117Z,14.80
2023-04-18T19:50:49.848Z,14.55
2023-04-18T19:53:16.827Z,13.35
2023-04-18T19:55:45.909Z,16.52
2023-04-18T19:58:32.361Z,11.23
2023-04-18T20:00:59.112Z,12.38
2023-04-18T20:03:26.100Z,9.90
2023-04-18T20:05:53.108Z,11.95
2023-04-18T20:08:19.856Z,12.35
2023-04-18T20:10:47.897Z,12.18
2023-04-18T20:13:14.642Z,10.63
2023-04-18T20:15:41.358Z,12.55
2023-04-18T20:18:08.150Z,11.88
2023-04-18T20:20:34.949Z,9.98
2023-04-18T20:23:01.765Z,11.65
2023-04-18T20:25:28.605Z,10.23
2023-04-18T20:27:56.703Z,12.88
2023-04-18T20:30:23.691Z,10.63
2023-04-18T20:32:50.498Z,9.98
2023-04-18T20:35:17.419Z,10.73
2023-04-18T20:37:44.103Z,9.82
2023-04-18T20:40:11.055Z,10.15
2023-04-18T20:42:37.998Z,11.30
2023-04-18T20:45:07.121Z,9.85
2023-04-18T20:47:33.962Z,10.13
2023-04-18T20:50:00.739Z,9.23
2023-04-18T20:52:27.486Z,10.35
2023-04-18T20:54:54.349Z,12.88
2023-04-18T20:57:21.097Z,10.65
2023-04-18T20:59:47.846Z,8.70
2023-04-18T21:02:18.936Z,9.10
2023-04-18T21:04:45.706Z,13.23
2023-04-18T21:07:12.567Z,10.80
2023-04-18T21:09:39.294Z,13.98
2023-04-18T21:12:06.587Z,9.98
2023-04-18T21:14:33.317Z,9.70
2023-04-18T21:17:00.258Z,13.32
2023-04-18T21:19:28.407Z,10.68
2023-04-18T21:21:55.265Z,11.83
2023-04-18T21:24:21.974Z,8.98
2023-04-18T21:26:48.697Z,9.77
2023-04-18T21:29:15.488Z,10.35
2023-04-18T21:31:42.279Z,8.95
2023-04-18T21:34:09.023Z,8.63
2023-04-18T21:36:37.291Z,12.82
2023-04-18T21:39:04.175Z,10.80
2023-04-18T21:41:30.912Z,11.63
2023-04-18T21:43:57.673Z,10.73
2023-04-18T21:46:25.577Z,9.75
2023-04-18T21:48:52.400Z,12.13
2023-04-18T21:51:19.121Z,10.57
2023-04-18T21:53:47.198Z,9.63
2023-04-18T21:56:14.022Z,11.77
2023-04-18T21:58:40.759Z,11.50
2023-04-18T22:01:07.667Z,8.77
2023-04-18T22:03:34.616Z,11.13
2023-04-18T22:06:01.825Z,12.15
2023-04-18T22:08:28.770Z,9.15
2023-04-18T22:10:58.589Z,10.57
2023-04-18T22:13:27.168Z,9.20
2023-04-18T22:15:53.959Z,10.77
2023-04-18T22:18:20.654Z,9.95
2023-04-18T22:20:47.606Z,11.65
2023-04-18T22:23:14.389Z,10.80
2023-04-18T22:25:41.162Z,11.35
2023-04-18T22:28:09.243Z,11.50
2023-04-18T22:30:36.016Z,9.73
2023-04-18T22:33:02.841Z,13.05
2023-04-18T22:35:29.623Z,11.43
2023-04-18T22:37:56.402Z,10.15
2023-04-18T22:40:23.143Z,12.20
2023-04-18T22:42:49.889Z,12.63
2023-04-18T22:45:18.444Z,10.80
2023-04-18T22:47:45.255Z,11.30
2023-04-18T22:50:12.344Z,12.93
2023-04-18T22:52:39.205Z,12.23
2023-04-18T22:55:06.561Z,12.98
2023-04-18T22:57:33.313Z,12.68
2023-04-18T23:00:00.095Z,11.15
2023-04-18T23:02:28.370Z,10.75
2023-04-18T23:04:56.838Z,10.80
2023-04-18T23:07:23.568Z,12.25
2023-04-18T23:09:50.309Z,9.73
2023-04-18T23:12:17.002Z,10.75
2023-04-18T23:14:43.724Z,12.75
2023-04-18T23:17:10.437Z,11.52
2023-04-18T23:19:38.754Z,11.27
2023-04-18T23:22:05.534Z,13.43
2023-04-18T23:24:32.276Z,8.77
2023-04-18T23:26:59.013Z,8.93
2023-04-18T23:29:25.743Z,12.57
2023-04-18T23:31:52.503Z,11.77
2023-04-18T23:34:19.362Z,11.98
2023-04-18T23:36:47.440Z,9.40
2023-04-18T23:39:14.198Z,10.67
2023-04-18T23:41:40.962Z,10.90
2023-04-18T23:44:07.734Z,12.60
2023-04-18T23:46:36.361Z,10.15
2023-04-18T23:51:30.164Z,11.48
2023-04-18T23:53:58.243Z,10.95
2023-04-18T23:56:24.978Z,9.47
2023-04-18T23:58:51.710Z,10.38
